createdAt,value
2019-01-27T00:01:23.569Z,3.00
2019-01-27T00:04:22.701Z,3.00
2019-01-27T00:06:55.320Z,3.02
2019-01-27T00:12:33.882Z,3.10
2019-01-27T00:21:36.818Z,3.09
2019-01-27T00:27:35.451Z,3.07
2019-01-27T00:33:38.489Z,2.86
2019-01-27T00:36:28.803Z,2.79
2019-01-27T00:39:16.029Z,2.76
2019-01-27T00:42:05.775Z,2.67
2019-01-27T00:44:54.416Z,2.58
2019-01-27T00:47:32.929Z,2.57
2019-01-27T00:50:02.995Z,2.57
2019-01-27T00:55:38.537Z,2.71
2019-01-27T00:58:16.190Z,2.75
2019-01-27T01:00:46.224Z,2.77
2019-01-27T01:03:23.029Z,2.77
2019-01-27T01:12:20.909Z,2.75
2019-01-27T01:15:28.894Z,2.63
2019-01-27T01:18:11.449Z,2.61
2019-01-27T01:23:51.394Z,2.49
2019-01-27T01:26:47.624Z,2.40
2019-01-27T01:29:15.981Z,2.33
2019-01-27T01:31:47.192Z,2.36
2019-01-27T01:34:17.101Z,2.42
2019-01-27T01:36:45.381Z,2.43
2019-01-27T01:39:13.717Z,2.45
2019-01-27T01:41:41.986Z,2.46
2019-01-27T01:44:10.253Z,2.46
2019-01-27T01:46:38.670Z,2.46
2019-01-27T01:49:06.887Z,2.45
2019-01-27T01:51:35.168Z,2.40
2019-01-27T01:54:03.449Z,2.35
2019-01-27T01:56:31.701Z,2.37
2019-01-27T01:59:00.096Z,2.35
2019-01-27T02:01:28.449Z,2.30
2019-01-27T02:03:56.751Z,2.28
2019-01-27T02:06:25.097Z,2.28
2019-01-27T02:08:53.441Z,2.29
2019-01-27T02:11:21.688Z,2.27
2019-01-27T02:13:49.963Z,2.28
2019-01-27T02:16:18.226Z,2.22
2019-01-27T02:18:46.504Z,2.22
2019-01-27T02:21:14.880Z,2.18
2019-01-27T02:23:43.133Z,2.11
2019-01-27T02:26:11.409Z,2.03
2019-01-27T02:28:39.696Z,1.99
2019-01-27T02:31:07.963Z,1.95
2019-01-27T02:33:36.336Z,1.90
2019-01-27T02:36:04.638Z,1.85
2019-01-27T02:38:32.942Z,1.79
2019-01-27T02:41:01.217Z,1.74
2019-01-27T02:43:29.695Z,1.73
2019-01-27T02:45:57.999Z,1.70
2019-01-27T02:48:26.235Z,1.69
2019-01-27T02:50:54.524Z,0.08
2019-01-27T02:53:22.805Z,1.65
2019-01-27T02:55:51.119Z,1.66
2019-01-27T02:58:19.455Z,1.66
2019-01-27T03:00:47.735Z,1.62
2019-01-27T03:03:16.010Z,1.63
2019-01-27T03:05:48.959Z,1.64
2019-01-27T03:08:17.226Z,1.63
2019-01-27T03:10:45.487Z,1.62
2019-01-27T03:13:13.776Z,1.62
2019-01-27T03:15:42.113Z,1.59
2019-01-27T03:18:10.380Z,1.56
2019-01-27T03:20:38.649Z,1.53
2019-01-27T03:23:06.931Z,1.51
2019-01-27T03:25:35.388Z,1.49
2019-01-27T03:28:03.774Z,1.44
2019-01-27T03:31:20.920Z,1.42
2019-01-27T03:33:53.714Z,1.39
2019-01-27T03:36:22.351Z,1.34
2019-01-27T03:42:13.839Z,1.30
2019-01-27T03:44:57.066Z,1.25
2019-01-27T03:47:55.848Z,1.23
2019-01-27T03:50:36.102Z,-3.27
2019-01-27T03:53:04.523Z,1.17
2019-01-27T03:55:40.389Z,1.12
2019-01-27T03:58:29.836Z,1.08
2019-01-27T04:01:40.277Z,1.13
2019-01-27T04:03:47.585Z,1.16
2019-01-27T04:06:15.976Z,1.13
2019-01-27T04:08:44.281Z,1.11
2019-01-27T04:11:12.560Z,1.10
2019-01-27T04:13:40.923Z,1.07
2019-01-27T04:16:09.252Z,1.07
2019-01-27T04:18:37.510Z,-2.14
2019-01-27T04:21:05.802Z,1.05
2019-01-27T04:23:34.287Z,1.02
2019-01-27T04:26:02.579Z,1.00
2019-01-27T04:28:30.855Z,0.97
2019-01-27T04:30:59.116Z,0.95
2019-01-27T04:33:27.413Z,0.93
2019-01-27T04:35:55.689Z,0.92
2019-01-27T04:38:24.054Z,0.88
2019-01-27T04:40:52.413Z,-2.16
2019-01-27T04:43:20.817Z,0.85
2019-01-27T04:45:49.236Z,0.81
2019-01-27T04:48:17.554Z,0.78
2019-01-27T04:50:45.849Z,0.75
2019-01-27T04:53:14.102Z,0.71
2019-01-27T04:55:42.372Z,0.67
2019-01-27T04:58:10.760Z,-2.09
2019-01-27T05:00:39.011Z,0.63
2019-01-27T05:03:11.832Z,0.60
2019-01-27T05:05:40.141Z,0.60
2019-01-27T05:08:08.472Z,0.59
2019-01-27T05:10:36.773Z,-1.59
2019-01-27T05:13:05.273Z,0.59
2019-01-27T05:15:34.151Z,0.57
2019-01-27T05:18:02.469Z,0.58
2019-01-27T05:20:30.833Z,0.58
2019-01-27T05:22:59.085Z,0.57
2019-01-27T05:25:27.385Z,0.57
2019-01-27T05:27:55.867Z,0.57
2019-01-27T05:30:26.292Z,0.58
2019-01-27T05:32:54.658Z,0.54
2019-01-27T05:35:23.068Z,0.57
2019-01-27T05:37:51.318Z,0.60
2019-01-27T05:40:23.942Z,0.60
2019-01-27T05:42:52.343Z,0.59
2019-01-27T05:45:23.014Z,0.62
2019-01-27T05:47:51.400Z,0.66
2019-01-27T05:50:19.801Z,0.68
2019-01-27T05:52:48.175Z,0.67
2019-01-27T05:55:20.693Z,0.68
2019-01-27T05:57:49.120Z,0.70
2019-01-27T06:00:35.791Z,0.70
2019-01-27T06:03:04.121Z,0.72
2019-01-27T06:05:32.477Z,0.68
2019-01-27T06:08:00.880Z,0.66
2019-01-27T06:10:29.149Z,0.63
2019-01-27T06:12:57.433Z,0.54
2019-01-27T06:15:25.766Z,0.48
2019-01-27T06:17:54.117Z,0.45
2019-01-27T06:20:22.481Z,0.46
2019-01-27T06:22:50.839Z,0.55
2019-01-27T06:25:20.174Z,0.60
2019-01-27T06:27:48.549Z,0.62
2019-01-27T06:30:23.039Z,0.65
2019-01-27T06:33:05.408Z,0.66
2019-01-27T06:35:33.893Z,0.67
2019-01-27T06:38:03.347Z,0.67
2019-01-27T06:40:31.632Z,0.69
2019-01-27T06:43:00.004Z,0.70
2019-01-27T06:45:28.314Z,0.70
2019-01-27T06:47:56.761Z,0.69
2019-01-27T06:50:25.186Z,0.70
2019-01-27T06:52:53.548Z,0.60
2019-01-27T06:55:22.649Z,0.55
2019-01-27T06:57:50.991Z,0.64
2019-01-27T07:00:25.829Z,0.77
2019-01-27T07:02:55.771Z,0.90
2019-01-27T07:05:25.656Z,1.06
2019-01-27T07:07:58.658Z,1.22
2019-01-27T07:10:31.647Z,1.35
2019-01-27T07:13:16.573Z,1.46
2019-01-27T07:15:55.380Z,1.60
2019-01-27T07:18:28.109Z,1.73
2019-01-27T07:21:14.296Z,1.86
2019-01-27T07:23:44.321Z,2.01
2019-01-27T07:26:26.268Z,2.18
2019-01-27T07:28:56.255Z,2.29
2019-01-27T07:31:35.071Z,2.39
2019-01-27T07:34:10.743Z,2.47
2019-01-27T07:36:46.433Z,2.54
2019-01-27T07:39:16.380Z,2.59
2019-01-27T07:41:58.074Z,2.59
2019-01-27T07:44:28.131Z,2.61
2019-01-27T07:47:03.928Z,2.63
2019-01-27T07:49:33.936Z,2.66
2019-01-27T07:52:03.914Z,2.71
2019-01-27T07:54:33.872Z,2.75
2019-01-27T07:57:06.545Z,2.83
2019-01-27T07:59:36.518Z,2.91
2019-01-27T08:02:12.127Z,1.87
2019-01-27T08:04:42.047Z,3.11
2019-01-27T08:07:11.962Z,3.19
2019-01-27T08:09:50.368Z,3.31
2019-01-27T08:12:23.240Z,3.39
2019-01-27T08:15:01.874Z,3.47
2019-01-27T08:17:48.160Z,3.55
2019-01-27T08:20:27.042Z,3.59
2019-01-27T08:23:02.738Z,3.64
2019-01-27T08:25:35.292Z,3.68
2019-01-27T08:28:05.221Z,3.65
2019-01-27T08:30:35.187Z,3.67
2019-01-27T08:33:07.763Z,3.71
2019-01-27T08:35:40.275Z,3.66
2019-01-27T08:38:28.488Z,3.65
2019-01-27T08:41:14.489Z,3.62
2019-01-27T08:43:53.521Z,1.79
2019-01-27T08:46:25.851Z,3.69
2019-01-27T08:48:54.096Z,3.67
2019-01-27T08:51:22.363Z,3.71
2019-01-27T08:53:50.635Z,3.73
2019-01-27T08:56:18.875Z,3.74
2019-01-27T08:58:47.138Z,3.79
2019-01-27T09:01:19.456Z,3.88
2019-01-27T09:03:49.387Z,3.95
2019-01-27T09:06:22.216Z,4.03
2019-01-27T09:08:55.080Z,4.11
2019-01-27T09:11:24.985Z,4.16
2019-01-27T09:13:54.879Z,4.19
2019-01-27T09:16:30.514Z,4.27
2019-01-27T09:19:09.198Z,4.28
2019-01-27T09:21:41.578Z,4.30
2019-01-27T09:24:13.900Z,4.33
2019-01-27T09:26:46.567Z,4.37
2019-01-27T09:29:19.572Z,4.37
2019-01-27T09:31:51.941Z,4.42
2019-01-27T09:34:21.824Z,4.47
2019-01-27T09:36:54.531Z,4.48
2019-01-27T09:39:26.860Z,4.47
2019-01-27T09:42:11.709Z,4.50
2019-01-27T09:44:44.576Z,4.54
2019-01-27T09:47:14.505Z,4.52
2019-01-27T09:49:44.413Z,4.52
2019-01-27T09:52:20.126Z,4.52
2019-01-27T09:54:58.874Z,4.55
2019-01-27T09:57:31.608Z,4.57
2019-01-27T10:00:05.920Z,4.58
2019-01-27T10:02:44.652Z,4.58
2019-01-27T10:05:23.748Z,4.60
2019-01-27T10:07:59.222Z,4.61
2019-01-27T10:10:29.147Z,4.64
2019-01-27T10:12:59.046Z,4.64
2019-01-27T10:15:34.760Z,4.66
2019-01-27T10:18:07.118Z,4.70
2019-01-27T10:20:39.747Z,4.68
2019-01-27T10:23:12.723Z,4.71
2019-01-27T10:25:45.376Z,4.70
2019-01-27T10:28:15.316Z,4.74
2019-01-27T10:30:45.567Z,4.77
2019-01-27T10:33:31.595Z,4.80
2019-01-27T10:36:19.353Z,4.84
2019-01-27T10:38:49.306Z,4.87
2019-01-27T10:41:19.236Z,4.97
2019-01-27T10:44:05.343Z,5.11
2019-01-27T10:46:38.285Z,5.21
2019-01-27T10:49:10.690Z,5.31
2019-01-27T10:51:43.559Z,5.41
2019-01-27T10:54:29.976Z,5.54
2019-01-27T10:57:18.061Z,5.65
2019-01-27T10:59:56.732Z,5.74
2019-01-27T11:02:36.528Z,5.84
2019-01-27T11:05:00.918Z,5.93
2019-01-27T11:07:30.819Z,6.03
2019-01-27T11:10:06.669Z,6.09
2019-01-27T11:12:42.730Z,6.14
2019-01-27T11:15:30.454Z,6.21
2019-01-27T11:18:00.344Z,6.27
2019-01-27T11:20:39.747Z,6.35
2019-01-27T11:23:20.892Z,6.39
2019-01-27T11:25:50.789Z,6.45
2019-01-27T11:28:38.830Z,6.51
2019-01-27T11:31:25.048Z,6.55
2019-01-27T11:34:10.093Z,6.56
2019-01-27T11:36:45.700Z,6.57
2019-01-27T11:39:18.134Z,6.63
2019-01-27T11:41:54.278Z,6.65
2019-01-27T11:44:40.247Z,6.66
2019-01-27T11:47:10.161Z,6.71
2019-01-27T11:49:46.165Z,6.76
2019-01-27T11:52:15.578Z,6.81
2019-01-27T11:54:44.116Z,6.86
2019-01-27T11:57:12.392Z,6.91
2019-01-27T11:59:40.639Z,6.93
2019-01-27T12:02:08.898Z,7.04
2019-01-27T12:04:37.149Z,7.10
2019-01-27T12:07:05.392Z,7.18
2019-01-27T12:09:33.685Z,7.24
2019-01-27T12:12:01.947Z,7.26
2019-01-27T12:14:30.228Z,7.32
2019-01-27T12:16:58.444Z,7.30
2019-01-27T12:19:26.693Z,7.27
2019-01-27T12:21:54.968Z,7.29
2019-01-27T12:24:23.216Z,7.27
2019-01-27T12:26:51.532Z,7.33
2019-01-27T12:29:19.784Z,7.35
2019-01-27T12:31:48.038Z,7.39
2019-01-27T12:34:16.291Z,7.40
2019-01-27T12:36:44.539Z,7.46
2019-01-27T12:39:12.804Z,7.53
2019-01-27T12:41:41.064Z,7.57
2019-01-27T12:44:09.307Z,7.58
2019-01-27T12:46:37.613Z,7.57
2019-01-27T12:49:05.878Z,7.61
2019-01-27T12:51:34.154Z,7.66
2019-01-27T12:54:02.410Z,7.70
2019-01-27T12:56:30.655Z,7.74
2019-01-27T12:58:58.935Z,7.76
2019-01-27T13:01:27.190Z,7.80
2019-01-27T13:03:55.462Z,7.85
2019-01-27T13:06:23.718Z,7.95
2019-01-27T13:08:51.962Z,7.98
2019-01-27T13:11:20.206Z,7.91
2019-01-27T13:13:48.466Z,7.94
2019-01-27T13:16:16.734Z,8.02
2019-01-27T13:18:44.988Z,7.98
2019-01-27T13:21:13.242Z,7.98
2019-01-27T13:23:41.490Z,8.03
2019-01-27T13:26:09.771Z,8.11
2019-01-27T13:28:38.018Z,8.21
2019-01-27T13:31:06.263Z,8.30
2019-01-27T13:33:34.526Z,8.43
2019-01-27T13:36:02.935Z,8.59
2019-01-27T13:38:31.191Z,8.74
2019-01-27T13:40:59.448Z,8.88
2019-01-27T13:43:27.697Z,8.99
2019-01-27T13:45:55.952Z,9.07
2019-01-27T13:48:24.224Z,9.07
2019-01-27T13:50:52.468Z,9.09
2019-01-27T13:53:20.727Z,9.17
2019-01-27T13:55:48.977Z,9.25
2019-01-27T13:58:17.229Z,9.26
2019-01-27T14:00:45.506Z,9.32
2019-01-27T14:03:13.752Z,9.33
2019-01-27T14:05:42.001Z,9.33
2019-01-27T14:08:10.252Z,9.15
2019-01-27T14:10:38.497Z,9.04
2019-01-27T14:13:06.775Z,8.93
2019-01-27T14:15:37.862Z,8.77
2019-01-27T14:18:06.213Z,8.66
2019-01-27T14:20:34.465Z,8.51
2019-01-27T14:23:02.714Z,8.41
2019-01-27T14:25:31.261Z,8.23
2019-01-27T14:27:59.510Z,8.14
2019-01-27T14:30:33.365Z,7.99
2019-01-27T14:33:01.620Z,7.88
2019-01-27T14:35:29.877Z,7.81
2019-01-27T14:37:58.187Z,7.76
2019-01-27T14:40:28.740Z,7.72
2019-01-27T14:42:57.055Z,7.66
2019-01-27T14:45:32.653Z,7.62
2019-01-27T14:48:01.383Z,7.56
2019-01-27T14:50:38.829Z,7.53
2019-01-27T14:53:07.641Z,7.47
2019-01-27T14:55:35.895Z,7.45
2019-01-27T14:58:04.650Z,7.42
2019-01-27T15:00:36.578Z,7.34
2019-01-27T15:03:05.698Z,7.34
2019-01-27T15:05:33.976Z,7.35
2019-01-27T15:08:02.225Z,7.35
2019-01-27T15:10:30.476Z,7.33
2019-01-27T15:12:58.759Z,7.33
2019-01-27T15:15:27.005Z,7.31
2019-01-27T15:17:55.276Z,7.32
2019-01-27T15:20:29.101Z,7.34
2019-01-27T15:22:57.356Z,7.30
2019-01-27T15:25:25.608Z,7.23
2019-01-27T15:27:53.867Z,7.20
2019-01-27T15:30:34.724Z,7.13
2019-01-27T15:33:02.975Z,7.08
2019-01-27T15:35:31.298Z,7.02
2019-01-27T15:37:59.622Z,6.93
2019-01-27T15:40:27.876Z,6.83
2019-01-27T15:42:56.144Z,6.76
2019-01-27T15:45:30.227Z,6.72
2019-01-27T15:47:58.524Z,6.66
2019-01-27T15:50:32.472Z,6.61
2019-01-27T15:53:00.724Z,6.55
2019-01-27T15:55:28.990Z,6.47
2019-01-27T15:57:57.261Z,6.41
2019-01-27T16:00:30.577Z,6.34
2019-01-27T16:02:58.910Z,6.26
2019-01-27T16:05:27.157Z,6.24
2019-01-27T16:07:55.420Z,6.21
2019-01-27T16:10:25.112Z,6.20
2019-01-27T16:12:54.701Z,6.18
2019-01-27T16:15:26.218Z,6.16
2019-01-27T16:17:54.467Z,6.16
2019-01-27T16:20:22.719Z,6.13
2019-01-27T16:22:55.064Z,6.14
2019-01-27T16:25:23.317Z,6.09
2019-01-27T16:27:51.599Z,6.05
2019-01-27T16:30:30.391Z,5.97
2019-01-27T16:33:00.282Z,5.89
2019-01-27T16:35:28.537Z,5.80
2019-01-27T16:37:56.891Z,5.74
2019-01-27T16:40:25.141Z,5.69
2019-01-27T16:42:53.395Z,5.64
2019-01-27T16:45:21.652Z,5.59
2019-01-27T16:47:49.911Z,5.55
2019-01-27T16:50:18.401Z,5.47
2019-01-27T16:52:46.729Z,5.43
2019-01-27T16:55:18.087Z,5.38
2019-01-27T16:57:46.351Z,5.38
2019-01-27T17:00:28.980Z,5.35
2019-01-27T17:02:57.247Z,5.29
2019-01-27T17:05:25.523Z,5.24
2019-01-27T17:07:54.774Z,5.18
2019-01-27T17:10:28.064Z,5.13
2019-01-27T17:12:56.339Z,5.00
2019-01-27T17:15:24.600Z,0.91
2019-01-27T17:17:52.846Z,4.85
2019-01-27T17:20:25.814Z,4.73
2019-01-27T17:22:52.618Z,4.64
2019-01-27T17:25:20.870Z,4.51
2019-01-27T17:27:49.132Z,4.47
2019-01-27T17:30:22.982Z,4.39
2019-01-27T17:32:51.643Z,4.25
2019-01-27T17:35:19.968Z,4.21
2019-01-27T17:37:48.215Z,4.17
2019-01-27T17:40:17.517Z,4.11
2019-01-27T17:42:45.774Z,4.01
2019-01-27T17:45:20.188Z,3.93
2019-01-27T17:47:48.470Z,3.86
2019-01-27T17:50:21.153Z,3.80
2019-01-27T17:52:49.605Z,3.74
2019-01-27T17:55:40.170Z,3.60
2019-01-27T17:58:36.622Z,3.58
2019-01-27T18:01:09.848Z,3.39
2019-01-27T18:03:42.485Z,3.22
2019-01-27T18:06:30.157Z,3.25
2019-01-27T18:09:11.936Z,3.30
2019-01-27T18:11:41.827Z,3.32
2019-01-27T18:14:11.762Z,3.34
2019-01-27T18:16:39.990Z,3.34
2019-01-27T18:19:08.254Z,3.35
2019-01-27T18:21:36.494Z,3.33
2019-01-27T18:24:04.980Z,3.31
2019-01-27T18:26:33.234Z,3.32
2019-01-27T18:29:01.478Z,3.31
2019-01-27T18:31:29.900Z,3.28
2019-01-27T18:33:58.182Z,3.20
2019-01-27T18:36:26.423Z,3.24
2019-01-27T18:38:54.697Z,3.23
2019-01-27T18:41:22.944Z,3.26
2019-01-27T18:43:51.513Z,3.17
2019-01-27T18:46:19.788Z,3.10
2019-01-27T18:48:48.469Z,3.11
2019-01-27T18:51:16.727Z,3.16
2019-01-27T18:54:02.090Z,3.16
2019-01-27T18:56:47.073Z,3.21
2019-01-27T18:59:29.279Z,3.20
2019-01-27T19:02:07.942Z,3.25
2019-01-27T19:04:38.126Z,3.28
2019-01-27T19:07:08.040Z,3.35
2019-01-27T19:09:38.213Z,3.40
2019-01-27T19:12:23.977Z,3.43
2019-01-27T19:14:54.013Z,3.41
2019-01-27T19:17:26.577Z,3.43
2019-01-27T19:20:11.411Z,3.40
2019-01-27T19:22:44.476Z,3.45
2019-01-27T19:25:17.440Z,3.47
2019-01-27T19:28:05.704Z,3.51
2019-01-27T19:30:44.781Z,3.51
2019-01-27T19:33:20.257Z,3.54
2019-01-27T19:36:06.427Z,3.46
2019-01-27T19:38:48.559Z,3.43
2019-01-27T19:41:18.626Z,3.53
2019-01-27T19:44:00.765Z,3.50
2019-01-27T19:46:33.823Z,3.60
2019-01-27T19:49:06.802Z,3.68
2019-01-27T19:51:39.667Z,3.73
2019-01-27T19:54:15.328Z,3.75
2019-01-27T19:57:03.097Z,3.74
2019-01-27T19:59:33.056Z,3.80
2019-01-27T20:02:05.782Z,3.72
2019-01-27T20:04:35.749Z,3.65
2019-01-27T20:07:05.803Z,-4.32
2019-01-27T20:09:41.674Z,3.75
2019-01-27T20:12:20.334Z,3.86
2019-01-27T20:14:53.342Z,4.01
2019-01-27T20:17:26.565Z,4.17
2019-01-27T20:20:05.662Z,4.33
2019-01-27T20:22:38.221Z,4.47
2019-01-27T20:25:11.743Z,4.68
2019-01-27T20:27:59.830Z,4.84
2019-01-27T20:30:29.758Z,4.97
2019-01-27T20:33:08.669Z,5.11
2019-01-27T20:35:47.573Z,5.21
2019-01-27T20:38:20.255Z,5.30
2019-01-27T20:40:59.469Z,5.35
2019-01-27T20:43:29.420Z,5.44
2019-01-27T20:45:59.402Z,5.49
2019-01-27T20:48:31.771Z,5.51
2019-01-27T20:51:01.779Z,5.53
2019-01-27T20:53:40.802Z,5.55
2019-01-27T20:56:28.971Z,5.61
2019-01-27T20:59:05.221Z,5.63
2019-01-27T21:01:35.098Z,5.60
2019-01-27T21:04:05.115Z,5.59
2019-01-27T21:06:35.031Z,5.59
2019-01-27T21:09:12.180Z,5.58
2019-01-27T21:11:42.080Z,5.55
2019-01-27T21:14:17.844Z,5.53
2019-01-27T21:16:47.796Z,5.51
2019-01-27T21:19:17.914Z,5.52
2019-01-27T21:21:46.401Z,5.54
2019-01-27T21:24:14.689Z,5.54
2019-01-27T21:26:43.178Z,5.55
2019-01-27T21:29:11.504Z,5.54
2019-01-27T21:31:39.876Z,5.55
2019-01-27T21:34:08.201Z,5.54
2019-01-27T21:36:36.750Z,5.53
2019-01-27T21:39:07.952Z,5.52
2019-01-27T21:41:36.204Z,5.50
2019-01-27T21:44:07.800Z,5.52
2019-01-27T21:46:36.049Z,5.53
2019-01-27T21:49:04.389Z,5.52
2019-01-27T21:51:32.643Z,5.53
2019-01-27T21:54:00.914Z,5.52
2019-01-27T21:56:29.180Z,5.53
2019-01-27T21:58:57.419Z,5.50
2019-01-27T22:01:25.707Z,5.49
2019-01-27T22:03:53.976Z,5.44
2019-01-27T22:06:22.274Z,5.42
2019-01-27T22:08:50.495Z,5.40
2019-01-27T22:11:18.741Z,5.40
2019-01-27T22:13:47.084Z,5.40
2019-01-27T22:16:15.492Z,5.39
2019-01-27T22:18:43.907Z,5.37
2019-01-27T22:21:12.301Z,5.36
2019-01-27T22:23:40.651Z,5.32
2019-01-27T22:26:09.089Z,5.31
2019-01-27T22:28:37.372Z,5.33
2019-01-27T22:31:05.769Z,5.32
2019-01-27T22:33:34.041Z,5.31
2019-01-27T22:36:02.297Z,5.31
2019-01-27T22:38:30.585Z,5.28
2019-01-27T22:40:58.857Z,5.26
2019-01-27T22:43:27.154Z,5.22
2019-01-27T22:45:55.416Z,5.21
2019-01-27T22:48:23.696Z,5.18
2019-01-27T22:50:51.981Z,5.19
2019-01-27T22:53:20.276Z,5.16
2019-01-27T22:55:48.521Z,5.17
2019-01-27T22:58:16.862Z,5.13
2019-01-27T23:00:55.326Z,5.11
2019-01-27T23:03:23.957Z,5.08
2019-01-27T23:05:52.228Z,5.10
2019-01-27T23:08:20.565Z,5.08
2019-01-27T23:10:48.813Z,5.05
2019-01-27T23:13:17.068Z,5.06
2019-01-27T23:15:45.327Z,5.06
2019-01-27T23:18:13.595Z,5.03
2019-01-27T23:20:41.827Z,5.02
2019-01-27T23:23:10.167Z,5.02
2019-01-27T23:25:38.444Z,4.99
2019-01-27T23:28:06.722Z,5.02
2019-01-27T23:30:34.982Z,4.98
2019-01-27T23:33:03.242Z,4.95
2019-01-27T23:35:31.498Z,4.95
2019-01-27T23:37:59.762Z,4.92
2019-01-27T23:40:28.008Z,4.92
2019-01-27T23:42:56.281Z,4.86
2019-01-27T23:45:24.556Z,4.86
2019-01-27T23:47:52.788Z,4.81
2019-01-27T23:50:21.071Z,4.75
2019-01-27T23:52:49.341Z,4.70
2019-01-27T23:55:17.605Z,4.73
2019-01-27T23:57:45.853Z,4.65
